Time;durP1;ratioP1;P1;durP2;ratioP2;P2;SDS_P1;SDS_P2;PMS_P1;PMS_P2;Temp;Humidity;BMP_temperature;BMP_pressure;BME280_temperature;BME280_humidity;BME280_pressure;Samples;Min_cycle;Max_cycle;Signal;HPM_P1;HPM_P2
2023/06/09 00:01:25;;;;;;;11.45;7.45;;;11.80;99.90;;;;;;4998881;28;88929;-31
2023/06/09 00:03:55;;;;;;;16.05;6.47;;;11.90;99.90;;;;;;4999976;28;89217;-34
2023/06/09 00:06:22;;;;;;;14.95;5.75;;;11.80;99.90;;;;;;4998991;28;90798;-34
2023/06/09 00:08:52;;;;;;;11.50;5.13;;;11.80;99.90;;;;;;4999578;28;89559;-32
2023/06/09 00:11:18;;;;;;;11.73;4.30;;;11.70;99.90;;;;;;4999280;28;88972;-32
2023/06/09 00:13:45;;;;;;;14.65;6.57;;;11.70;99.90;;;;;;4999505;28;90598;-34
2023/06/09 00:16:11;;;;;;;13.48;5.40;;;11.70;99.90;;;;;;4998269;28;90648;-33
2023/06/09 00:18:40;;;;;;;9.50;4.68;;;11.70;99.90;;;;;;4999603;28;90710;-32
2023/06/09 00:21:06;;;;;;;14.52;5.57;;;11.60;99.90;;;;;;4998905;28;89151;-33
2023/06/09 00:23:32;;;;;;;8.18;4.97;;;11.60;99.90;;;;;;4999134;28;89692;-31
2023/06/09 00:25:58;;;;;;;12.15;3.75;;;11.60;99.90;;;;;;4998801;28;89750;-32
2023/06/09 00:28:23;;;;;;;9.93;4.40;;;11.50;99.90;;;;;;4998543;28;89424;-34
2023/06/09 00:30:50;;;;;;;15.48;5.65;;;11.50;99.90;;;;;;4998722;28;89069;-35
2023/06/09 00:33:15;;;;;;;8.48;4.38;;;11.50;99.90;;;;;;4999332;28;89794;-30
2023/06/09 00:35:41;;;;;;;16.02;6.57;;;11.50;99.90;;;;;;4998425;28;89356;-32
2023/06/09 00:38:07;;;;;;;14.50;5.32;;;11.50;99.90;;;;;;4999309;28;89828;-32
2023/06/09 00:40:32;;;;;;;9.98;4.50;;;11.50;99.90;;;;;;4997968;28;89912;-34
2023/06/09 00:42:59;;;;;;;12.20;6.55;;;11.40;99.90;;;;;;4999170;28;90790;-36
2023/06/09 00:45:25;;;;;;;12.65;6.55;;;11.40;99.90;;;;;;4998653;28;89428;-34
2023/06/09 00:47:51;;;;;;;26.83;6.82;;;11.30;99.90;;;;;;4998174;28;90444;-32
2023/06/09 00:50:19;;;;;;;13.73;6.63;;;11.50;99.90;;;;;;4999363;28;89088;-35
2023/06/09 00:52:46;;;;;;;;;;;11.40;99.90;;;;;;4999342;28;89483;-33
2023/06/09 00:55:12;;;;;;;6.93;4.35;;;11.40;99.90;;;;;;4999100;28;89911;-32
2023/06/09 00:57:39;;;;;;;11.35;4.93;;;11.30;99.90;;;;;;4998831;28;89966;-32
2023/06/09 01:00:06;;;;;;;8.82;5.80;;;11.30;99.90;;;;;;4999092;28;89141;-36
2023/06/09 01:02:38;;;;;;;16.97;5.20;;;11.30;99.90;;;;;;4998860;28;90047;-33
2023/06/09 01:05:05;;;;;;;12.07;4.93;;;11.30;99.90;;;;;;4996415;28;90553;-31
2023/06/09 01:07:50;;;;;;;10.35;5.82;;;11.30;99.90;;;;;;4998458;28;90639;-33
2023/06/09 01:10:34;;;;;;;13.05;5.25;;;11.20;99.90;;;;;;4998249;28;88603;-33
2023/06/09 01:13:14;;;;;;;15.65;5.55;;;11.30;99.90;;;;;;4998369;28;90260;-32
2023/06/09 01:15:49;;;;;;;19.13;7.00;;;11.30;99.90;;;;;;4999112;28;90719;-31
2023/06/09 01:18:17;;;;;;;16.92;7.65;;;11.20;99.90;;;;;;4997087;28;89497;-34
2023/06/09 01:21:32;;;;;;;9.70;6.35;;;11.20;99.90;;;;;;4998711;28;89250;-34
2023/06/09 01:24:32;;;;;;;12.60;6.45;;;11.10;99.90;;;;;;4920189;28;90509;-33
2023/06/09 01:27:01;;;;;;;11.73;5.50;;;11.10;99.90;;;;;;4992254;28;89931;-31
2023/06/09 01:29:30;;;;;;;17.63;6.15;;;11.10;99.90;;;;;;5000805;28;89716;-33
2023/06/09 01:31:57;;;;;;;26.17;7.22;;;11.10;99.90;;;;;;5001355;28;88289;-32
2023/06/09 01:34:23;;;;;;;15.48;7.22;;;11.00;99.90;;;;;;5001412;28;90820;-34
2023/06/09 01:36:51;;;;;;;11.77;6.15;;;11.00;99.90;;;;;;5001516;28;90716;-35
2023/06/09 01:39:17;;;;;;;12.85;4.97;;;11.00;99.90;;;;;;4999951;28;90549;-33
2023/06/09 01:41:44;;;;;;;12.13;5.30;;;11.00;99.90;;;;;;5002258;28;90087;-33
2023/06/09 01:44:09;;;;;;;8.60;5.15;;;11.00;99.90;;;;;;5000975;28;91855;-33
2023/06/09 01:46:36;;;;;;;14.18;6.32;;;11.00;99.90;;;;;;5001319;28;89556;-33
2023/06/09 01:49:15;;;;;;;21.02;7.32;;;11.00;99.90;;;;;;5001749;28;89481;-34
2023/06/09 01:52:09;;;;;;;13.73;5.78;;;11.10;99.90;;;;;;5001745;28;88052;-33
2023/06/09 01:54:40;;;;;;;13.68;5.30;;;11.20;99.90;;;;;;5001117;28;90538;-34
2023/06/09 01:57:10;;;;;;;12.75;7.65;;;11.10;99.90;;;;;;5000610;28;90275;-32
2023/06/09 01:59:44;;;;;;;13.68;5.57;;;11.10;99.90;;;;;;5001619;28;90630;-33
2023/06/09 02:02:11;;;;;;;14.32;6.18;;;11.00;99.90;;;;;;5001183;28;89380;-36
2023/06/09 02:04:38;;;;;;;12.77;6.72;;;11.10;99.90;;;;;;5000823;28;91466;-32
2023/06/09 02:07:05;;;;;;;15.82;7.95;;;11.10;99.90;;;;;;5000592;28;89929;-33
2023/06/09 02:09:32;;;;;;;12.45;6.05;;;11.00;99.90;;;;;;5000724;28;90069;-31
2023/06/09 02:11:59;;;;;;;11.70;5.97;;;11.10;99.90;;;;;;5001426;28;88798;-35
2023/06/09 02:14:34;;;;;;;11.80;6.32;;;11.00;99.90;;;;;;5001111;28;89735;-35
2023/06/09 02:17:02;;;;;;;15.48;6.95;;;11.00;99.90;;;;;;5000609;28;89173;-32
2023/06/09 02:19:30;;;;;;;14.07;6.70;;;11.00;99.90;;;;;;5000194;28;89007;-33
2023/06/09 02:21:57;;;;;;;17.30;8.05;;;11.10;99.90;;;;;;5000998;28;90065;-36
2023/06/09 02:24:27;;;;;;;15.20;6.20;;;11.10;99.90;;;;;;5001162;28;89379;-33
2023/06/09 02:26:54;;;;;;;9.85;6.07;;;11.20;99.90;;;;;;5001476;28;89915;-32
2023/06/09 02:29:20;;;;;;;13.15;7.47;;;11.10;99.90;;;;;;5000107;28;91380;-33
2023/06/09 02:31:46;;;;;;;15.27;7.03;;;11.00;99.90;;;;;;5000523;28;89145;-33
2023/06/09 02:34:11;;;;;;;14.73;7.40;;;11.10;99.90;;;;;;5001007;28;90513;-31
2023/06/09 02:36:37;;;;;;;16.23;6.40;;;11.00;99.90;;;;;;5000513;28;90203;-31
2023/06/09 02:39:03;;;;;;;11.15;6.82;;;11.00;99.90;;;;;;5000981;28;89124;-31
2023/06/09 02:41:29;;;;;;;13.45;7.97;;;11.10;99.90;;;;;;5000957;28;88901;-35
2023/06/09 02:43:55;;;;;;;18.08;7.15;;;11.20;99.90;;;;;;5000085;28;89097;-31
2023/06/09 02:46:22;;;;;;;19.88;7.18;;;11.10;99.90;;;;;;5000248;28;91902;-31
2023/06/09 02:48:48;;;;;;;17.33;7.00;;;11.10;99.90;;;;;;5000551;28;90410;-32
2023/06/09 02:51:14;;;;;;;16.45;6.47;;;11.10;99.90;;;;;;5000282;28;88306;-34
2023/06/09 02:53:40;;;;;;;17.90;8.13;;;11.20;99.90;;;;;;4999717;28;90543;-32
2023/06/09 02:56:06;;;;;;;14.90;5.07;;;11.20;99.90;;;;;;5000002;28;89575;-33
2023/06/09 02:58:32;;;;;;;16.98;6.18;;;11.20;99.90;;;;;;5000016;28;89514;-34
2023/06/09 03:00:58;;;;;;;16.50;5.57;;;11.20;99.90;;;;;;5000621;28;89394;-35
2023/06/09 03:03:25;;;;;;;16.90;5.95;;;11.30;99.90;;;;;;4999688;28;90407;-33
2023/06/09 03:05:52;;;;;;;24.70;9.77;;;11.30;99.90;;;;;;5000835;28;89430;-32
2023/06/09 03:08:17;;;;;;;14.50;7.15;;;11.20;99.90;;;;;;4999038;28;90858;-33
2023/06/09 03:10:43;;;;;;;15.95;7.82;;;11.10;99.90;;;;;;5000081;28;89954;-34
2023/06/09 03:13:09;;;;;;;9.40;6.45;;;11.10;99.90;;;;;;5000543;28;90022;-32
2023/06/09 03:15:34;;;;;;;12.95;7.93;;;11.10;99.90;;;;;;4999754;28;89552;-33
2023/06/09 03:18:00;;;;;;;19.85;7.60;;;11.00;99.90;;;;;;4999915;28;89610;-32
2023/06/09 03:20:25;;;;;;;11.75;6.13;;;11.10;99.90;;;;;;5000217;28;88701;-34
2023/06/09 03:22:52;;;;;;;11.18;7.57;;;11.10;99.90;;;;;;5000304;28;89985;-32
2023/06/09 03:25:19;;;;;;;21.27;8.30;;;11.20;99.90;;;;;;4999262;28;89134;-36
2023/06/09 03:27:45;;;;;;;15.00;6.45;;;11.10;99.90;;;;;;4998864;28;89073;-31
2023/06/09 03:30:11;;;;;;;12.10;8.43;;;11.20;99.90;;;;;;4999735;28;88504;-33
2023/06/09 03:32:36;;;;;;;12.63;6.65;;;11.10;99.90;;;;;;4999990;28;91515;-32
2023/06/09 03:35:02;;;;;;;16.25;6.43;;;11.10;99.90;;;;;;4999114;28;91416;-34
2023/06/09 03:37:28;;;;;;;25.17;7.95;;;11.10;99.90;;;;;;4999792;28;90488;-31
2023/06/09 03:39:54;;;;;;;9.10;5.20;;;11.10;99.90;;;;;;4999617;28;88543;-33
2023/06/09 03:42:19;;;;;;;12.88;6.85;;;11.10;99.90;;;;;;4999619;28;90261;-32
2023/06/09 03:44:45;;;;;;;22.90;7.22;;;11.20;99.90;;;;;;4998714;28;89767;-32
2023/06/09 03:47:10;;;;;;;15.93;6.63;;;11.20;99.90;;;;;;4999089;28;89521;-36
2023/06/09 03:49:36;;;;;;;12.82;7.43;;;11.10;99.90;;;;;;5000474;28;88796;-34
2023/06/09 03:52:02;;;;;;;19.10;7.18;;;11.20;99.90;;;;;;4998866;28;90649;-32
2023/06/09 03:54:28;;;;;;;13.00;6.75;;;11.30;99.90;;;;;;4999035;28;89583;-34
2023/06/09 03:56:53;;;;;;;12.23;7.60;;;11.30;99.90;;;;;;4998958;28;90190;-34
2023/06/09 03:59:19;;;;;;;17.35;7.55;;;11.30;99.90;;;;;;4999643;28;89500;-32
2023/06/09 04:01:45;;;;;;;14.90;7.05;;;11.30;99.90;;;;;;4999140;28;91599;-33
2023/06/09 04:04:10;;;;;;;23.25;9.10;;;11.30;99.90;;;;;;4998733;28;89816;-32
2023/06/09 04:06:37;;;;;;;12.40;6.75;;;11.30;99.90;;;;;;4999488;28;89391;-30
2023/06/09 04:09:03;;;;;;;10.80;7.32;;;11.40;99.90;;;;;;4999357;28;89284;-30
2023/06/09 04:11:31;;;;;;;10.55;6.68;;;11.40;99.90;;;;;;4999432;28;89796;-37
2023/06/09 04:13:56;;;;;;;14.43;6.55;;;11.30;99.90;;;;;;4999509;28;90063;-30
2023/06/09 04:16:22;;;;;;;15.93;7.60;;;11.40;99.90;;;;;;4998418;28;90275;-30
2023/06/09 04:18:47;;;;;;;12.13;6.80;;;11.40;99.90;;;;;;4999527;28;89682;-33
2023/06/09 04:21:14;;;;;;;14.35;8.20;;;11.40;99.90;;;;;;4999094;28;90563;-32
2023/06/09 04:23:40;;;;;;;14.98;6.53;;;11.40;99.90;;;;;;4999281;28;90602;-34
2023/06/09 04:26:08;;;;;;;20.00;8.23;;;11.40;99.90;;;;;;5031426;22;90440;-33
2023/06/09 04:28:34;;;;;;;14.15;7.88;;;11.50;99.90;;;;;;4978778;28;89785;-33
2023/06/09 04:31:00;;;;;;;30.52;10.02;;;11.50;99.90;;;;;;4978827;28;90116;-31
2023/06/09 04:33:29;;;;;;;13.68;8.25;;;11.60;99.90;;;;;;4978191;28;89757;-33
2023/06/09 04:35:54;;;;;;;21.60;9.68;;;11.70;99.90;;;;;;4979282;28;90248;-31
2023/06/09 04:38:23;;;;;;;15.20;8.63;;;11.80;99.90;;;;;;4979123;28;89167;-31
2023/06/09 04:40:49;;;;;;;16.85;7.63;;;11.90;99.90;;;;;;4978483;28;89628;-35
2023/06/09 04:43:16;;;;;;;21.67;9.40;;;12.00;99.90;;;;;;4979003;28;89803;-32
2023/06/09 04:45:43;;;;;;;14.45;9.18;;;12.10;99.90;;;;;;4979259;28;88948;-33
2023/06/09 04:48:09;;;;;;;13.70;6.32;;;12.30;99.90;;;;;;4978416;28;89746;-32
2023/06/09 04:50:35;;;;;;;15.07;7.07;;;12.40;99.90;;;;;;4979267;28;90454;-32
2023/06/09 04:53:06;;;;;;;21.85;8.15;;;12.50;99.90;;;;;;4978547;28;89699;-35
2023/06/09 04:55:35;;;;;;;26.90;8.40;;;12.70;99.90;;;;;;4979096;28;88785;-31
2023/06/09 04:58:00;;;;;;;20.35;7.53;;;12.70;99.90;;;;;;4982702;28;87685;-32
2023/06/09 05:00:27;;;;;;;12.93;7.18;;;12.80;99.90;;;;;;4982062;28;90152;-33
2023/06/09 05:02:54;;;;;;;17.88;8.05;;;12.80;99.90;;;;;;4982810;28;89669;-35
2023/06/09 05:05:20;;;;;;;14.20;8.38;;;12.90;99.90;;;;;;4981624;28;89432;-36
2023/06/09 05:07:46;;;;;;;19.67;8.40;;;13.10;99.90;;;;;;4981687;28;89722;-36
2023/06/09 05:10:11;;;;;;;22.52;9.45;;;13.10;99.90;;;;;;4982125;28;90444;-32
2023/06/09 05:12:37;;;;;;;12.95;8.13;;;13.30;99.90;;;;;;4981495;28;90837;-34
2023/06/09 05:15:04;;;;;;;11.93;8.07;;;13.30;99.90;;;;;;4982277;28;90898;-32
2023/06/09 05:17:31;;;;;;;13.52;7.05;;;13.40;99.90;;;;;;4981492;28;89822;-34
2023/06/09 05:19:57;;;;;;;12.00;8.00;;;13.60;99.90;;;;;;4981133;28;88855;-36
2023/06/09 05:22:24;;;;;;;27.15;8.32;;;13.60;99.90;;;;;;4982434;28;89197;-32
2023/06/09 05:24:49;;;;;;;16.65;8.45;;;13.70;99.90;;;;;;4981696;28;90430;-33
2023/06/09 05:27:15;;;;;;;19.52;10.25;;;13.80;99.90;;;;;;4981063;28;88501;-33
2023/06/09 05:29:41;;;;;;;17.02;6.97;;;13.90;99.90;;;;;;4980959;28;89483;-34
2023/06/09 05:32:07;;;;;;;21.23;9.25;;;14.00;99.90;;;;;;4981575;28;89697;-36
2023/06/09 05:34:32;;;;;;;14.40;8.70;;;14.10;99.90;;;;;;4982096;28;88614;-31
2023/06/09 05:36:58;;;;;;;13.88;9.18;;;14.20;99.90;;;;;;4981903;28;89103;-33
2023/06/09 05:39:24;;;;;;;18.40;8.30;;;14.30;99.90;;;;;;4981064;28;90212;-33
2023/06/09 05:41:50;;;;;;;14.60;8.43;;;14.50;99.90;;;;;;4981311;28;89940;-33
2023/06/09 05:44:15;;;;;;;15.57;9.57;;;14.70;99.90;;;;;;4979031;28;89595;-35
2023/06/09 05:46:41;;;;;;;24.77;8.10;;;14.80;99.90;;;;;;4980322;28;89500;-34
2023/06/09 05:49:07;;;;;;;12.43;8.27;;;14.90;99.90;;;;;;4978544;28;91145;-32
2023/06/09 05:51:36;;;;;;;35.88;9.75;;;15.00;99.90;;;;;;4979289;28;90505;-35
2023/06/09 05:54:02;;;;;;;14.82;7.22;;;15.20;99.90;;;;;;4979523;28;89859;-36
2023/06/09 05:56:27;;;;;;;26.77;9.70;;;15.30;99.90;;;;;;4979241;28;89776;-33
2023/06/09 05:59:01;;;;;;;13.98;8.00;;;15.40;99.90;;;;;;4976967;28;91737;-35
2023/06/09 06:01:27;;;;;;;16.30;8.80;;;15.50;99.90;;;;;;4978346;28;90318;-32
2023/06/09 06:03:52;;;;;;;21.70;9.60;;;15.70;99.90;;;;;;4978943;28;90500;-34
2023/06/09 06:06:18;;;;;;;14.60;8.02;;;15.90;99.90;;;;;;4979556;28;89639;-34
2023/06/09 06:08:43;;;;;;;14.63;9.57;;;16.00;99.90;;;;;;4978222;28;89614;-31
2023/06/09 06:11:09;;;;;;;17.60;6.63;;;16.10;99.90;;;;;;4979391;28;90130;-35
2023/06/09 06:13:35;;;;;;;19.70;9.40;;;16.20;99.90;;;;;;4978317;28;89626;-35
2023/06/09 06:16:00;;;;;;;13.65;8.82;;;16.40;99.90;;;;;;4979798;28;88437;-34
2023/06/09 06:18:26;;;;;;;22.08;7.40;;;16.40;99.90;;;;;;4977658;28;90065;-33
2023/06/09 06:20:52;;;;;;;14.35;8.68;;;16.40;99.90;;;;;;4978932;28;90526;-31
2023/06/09 06:23:18;;;;;;;18.63;6.90;;;16.70;99.90;;;;;;4978146;28;89311;-36
2023/06/09 06:25:43;;;;;;;16.02;7.45;;;16.90;99.90;;;;;;4978178;28;89711;-32
2023/06/09 06:28:10;;;;;;;14.63;8.10;;;16.90;99.90;;;;;;4978502;28;90526;-33
2023/06/09 06:30:37;;;;;;;16.75;8.45;;;17.20;99.90;;;;;;4978510;28;90020;-33
2023/06/09 06:33:04;;;;;;;18.83;7.75;;;17.40;99.90;;;;;;4978539;28;89485;-35
2023/06/09 06:35:30;;;;;;;13.75;7.90;;;17.50;99.90;;;;;;4979338;28;90037;-34
2023/06/09 06:37:57;;;;;;;22.08;9.35;;;17.70;99.90;;;;;;4980274;28;88905;-31
2023/06/09 06:40:23;;;;;;;14.82;7.57;;;17.80;99.90;;;;;;4978217;28;90062;-33
2023/06/09 06:42:49;;;;;;;17.95;7.93;;;17.90;99.90;;;;;;4981513;28;89087;-33
2023/06/09 06:45:16;;;;;;;15.00;8.27;;;17.90;99.90;;;;;;4989148;28;87687;-31
2023/06/09 06:48:15;;;;;;;21.45;8.43;;;18.20;99.90;;;;;;4982238;28;90173;-35
2023/06/09 06:50:41;;;;;;;11.95;8.35;;;18.30;99.90;;;;;;4940812;28;91056;-34
2023/06/09 06:53:08;;;;;;;12.80;8.93;;;18.50;99.90;;;;;;4986181;28;89425;-36
2023/06/09 06:55:35;;;;;;;13.57;8.35;;;18.60;99.90;;;;;;4978921;28;88832;-34
2023/06/09 06:58:01;;;;;;;8.55;6.88;;;18.70;99.90;;;;;;4978153;28;90376;-34
2023/06/09 07:00:27;;;;;;;13.40;8.80;;;18.80;99.90;;;;;;4978635;28;89763;-34
2023/06/09 07:02:53;;;;;;;14.52;7.65;;;18.70;99.90;;;;;;4978294;28;89547;-33
2023/06/09 07:05:19;;;;;;;13.60;7.75;;;19.10;99.90;;;;;;4978530;28;89453;-30
2023/06/09 07:07:45;;;;;;;12.18;7.68;;;19.20;99.90;;;;;;4978676;28;89185;-36
2023/06/09 07:10:11;;;;;;;17.15;9.32;;;19.20;99.90;;;;;;4978347;28;89931;-32
2023/06/09 07:12:37;;;;;;;17.75;8.02;;;19.30;99.90;;;;;;4978262;28;89193;-32
2023/06/09 07:15:03;;;;;;;13.70;8.25;;;19.40;99.90;;;;;;4977888;28;90199;-34
2023/06/09 07:17:29;;;;;;;13.68;9.35;;;19.60;99.90;;;;;;4978567;28;90800;-32
2023/06/09 07:19:55;;;;;;;15.23;8.80;;;19.70;99.90;;;;;;4977109;28;89803;-35
2023/06/09 07:22:21;;;;;;;11.13;8.35;;;19.80;99.90;;;;;;4981264;28;89618;-31
2023/06/09 07:24:47;;;;;;;18.50;8.18;;;19.90;99.90;;;;;;4977604;28;89507;-34
2023/06/09 07:27:13;;;;;;;13.25;8.35;;;20.10;99.90;;;;;;4977951;28;90095;-31
2023/06/09 07:29:41;;;;;;;12.95;6.85;;;20.20;99.90;;;;;;4977758;28;89178;-35
2023/06/09 07:32:08;;;;;;;15.55;8.77;;;20.30;99.90;;;;;;4975924;28;89629;-32
2023/06/09 07:34:33;;;;;;;17.23;7.65;;;20.30;99.90;;;;;;4977899;28;88947;-35
2023/06/09 07:37:00;;;;;;;14.48;8.15;;;20.60;99.90;;;;;;4978403;28;90295;-32
2023/06/09 07:39:27;;;;;;;17.40;8.50;;;20.60;99.90;;;;;;4975330;28;90388;-31
2023/06/09 07:41:53;;;;;;;11.87;8.37;;;20.50;99.90;;;;;;4978301;28;88767;-31
2023/06/09 07:44:18;;;;;;;11.48;7.18;;;20.70;99.90;;;;;;4977855;28;88439;-31
2023/06/09 07:46:44;;;;;;;16.23;8.55;;;20.90;99.90;;;;;;4977160;28;90464;-32
2023/06/09 07:49:10;;;;;;;12.73;7.88;;;21.00;99.90;;;;;;4977366;28;89856;-36
2023/06/09 07:51:37;;;;;;;14.48;8.07;;;21.00;99.90;;;;;;4977453;28;90225;-32
2023/06/09 07:54:06;;;;;;;12.93;7.28;;;21.20;99.90;;;;;;4977449;28;89562;-31
2023/06/09 07:56:32;;;;;;;12.15;7.57;;;21.30;99.90;;;;;;4977712;28;90190;-32
2023/06/09 07:58:58;;;;;;;15.82;7.50;;;21.60;99.90;;;;;;4984374;28;91620;-32
2023/06/09 08:01:24;;;;;;;10.93;6.65;;;21.80;99.90;;;;;;4983279;28;89683;-34
2023/06/09 08:03:50;;;;;;;15.18;6.93;;;21.90;99.90;;;;;;4977423;28;90140;-32
2023/06/09 08:06:16;;;;;;;16.73;8.40;;;22.10;99.90;;;;;;4977611;28;89817;-32
2023/06/09 08:08:43;;;;;;;10.68;7.22;;;22.00;99.90;;;;;;4977083;28;89691;-31
2023/06/09 08:11:10;;;;;;;13.20;7.60;;;22.10;99.90;;;;;;4977643;28;89514;-33
2023/06/09 08:13:35;;;;;;;11.27;7.25;;;22.00;99.90;;;;;;4977917;28;89826;-32
2023/06/09 08:16:01;;;;;;;10.35;5.93;;;22.30;99.90;;;;;;4979556;28;90370;-32
2023/06/09 08:18:26;;;;;;;11.13;6.80;;;22.50;99.90;;;;;;4978457;28;90013;-31
2023/06/09 08:20:52;;;;;;;11.18;7.90;;;22.60;99.90;;;;;;4979680;28;89552;-32
2023/06/09 08:23:20;;;;;;;14.23;7.25;;;22.70;99.90;;;;;;4976624;28;90023;-34
2023/06/09 08:25:46;;;;;;;12.25;7.10;;;22.80;99.90;;;;;;4979458;28;89152;-34
2023/06/09 08:28:13;;;;;;;14.95;6.85;;;22.90;99.90;;;;;;4977757;28;91232;-31
2023/06/09 08:30:38;;;;;;;13.45;7.20;;;23.00;97.00;;;;;;4979969;28;90846;-33
2023/06/09 08:33:04;;;;;;;11.18;6.15;;;23.00;99.90;;;;;;4979490;28;89784;-32
2023/06/09 08:35:32;;;;;;;13.00;6.78;;;23.10;99.90;;;;;;4978325;28;90148;-34
2023/06/09 08:37:58;;;;;;;13.55;7.07;;;23.20;94.70;;;;;;4979010;28;89943;-34
2023/06/09 08:40:24;;;;;;;11.48;6.57;;;23.30;96.20;;;;;;4979204;28;89670;-32
2023/06/09 08:42:55;;;;;;;9.88;6.22;;;23.50;94.10;;;;;;4978535;28;88464;-36
2023/06/09 08:45:21;;;;;;;11.00;6.70;;;23.80;90.70;;;;;;4979023;28;91087;-32
2023/06/09 08:47:53;;;;;;;7.18;6.03;;;23.80;90.80;;;;;;4977836;28;89451;-33
2023/06/09 08:50:21;;;;;;;8.68;6.55;;;23.90;85.50;;;;;;4977995;28;89558;-33
2023/06/09 08:52:47;;;;;;;8.95;5.00;;;24.00;83.50;;;;;;4977757;28;89684;-33
2023/06/09 08:55:14;;;;;;;7.95;7.03;;;24.20;80.70;;;;;;4979105;28;90451;-32
2023/06/09 08:57:40;;;;;;;9.43;6.53;;;24.20;79.20;;;;;;4978072;28;89685;-34
2023/06/09 09:00:09;;;;;;;11.05;5.93;;;24.30;81.70;;;;;;4978940;28;89316;-36
2023/06/09 09:02:35;;;;;;;10.70;7.10;;;24.50;84.10;;;;;;4979050;28;88571;-31
2023/06/09 09:05:01;;;;;;;11.43;6.65;;;24.60;77.80;;;;;;4978658;28;90646;-31
2023/06/09 09:07:28;;;;;;;15.15;7.65;;;24.70;73.30;;;;;;4978364;28;89281;-36
2023/06/09 09:09:54;;;;;;;15.10;7.93;;;24.70;75.00;;;;;;4978974;28;89138;-33
2023/06/09 09:12:19;;;;;;;10.82;7.18;;;24.80;75.20;;;;;;4978262;28;89757;-32
2023/06/09 09:14:46;;;;;;;10.82;6.88;;;25.00;73.60;;;;;;4976128;28;90066;-36
2023/06/09 09:17:14;;;;;;;8.63;6.43;;;25.10;76.60;;;;;;4978629;28;89095;-32
2023/06/09 09:19:48;;;;;;;7.20;6.50;;;25.10;74.00;;;;;;4976776;28;89944;-32
2023/06/09 09:22:14;;;;;;;7.72;6.32;;;25.10;74.20;;;;;;4978512;28;90350;-36
2023/06/09 09:24:44;;;;;;;10.40;7.10;;;25.10;71.80;;;;;;4977960;28;90689;-32
2023/06/09 09:27:21;;;;;;;18.83;6.93;;;25.40;72.00;;;;;;4977968;28;90763;-34
2023/06/09 09:29:47;;;;;;;7.60;5.30;;;25.50;71.50;;;;;;4978044;28;89721;-32
2023/06/09 09:32:13;;;;;;;10.55;7.47;;;25.40;71.20;;;;;;4978319;28;89954;-35
2023/06/09 09:34:45;;;;;;;8.43;7.43;;;25.40;69.80;;;;;;4965370;28;90871;-32
2023/06/09 09:37:13;;;;;;;12.10;7.78;;;25.60;70.30;;;;;;4978570;28;88668;-35
2023/06/09 09:39:52;;;;;;;11.63;7.55;;;25.50;69.40;;;;;;4978758;28;89861;-31
2023/06/09 09:42:18;;;;;;;12.95;6.93;;;25.60;69.20;;;;;;4978940;28;90892;-36
2023/06/09 09:44:51;;;;;;;8.82;7.97;;;25.70;70.00;;;;;;4981512;28;90348;-35
2023/06/09 09:47:18;;;;;;;9.10;6.75;;;25.60;68.90;;;;;;4981860;28;91197;-32
2023/06/09 09:49:54;;;;;;;15.68;7.00;;;25.90;71.30;;;;;;4979814;28;89447;-36
2023/06/09 09:52:24;;;;;;;9.55;5.88;;;26.00;68.70;;;;;;4979036;28;88816;-35
2023/06/09 09:55:00;;;;;;;19.02;7.88;;;26.40;68.70;;;;;;4981187;28;89319;-33
2023/06/09 09:57:30;;;;;;;7.75;6.65;;;26.40;67.20;;;;;;4967826;28;90039;-34
2023/06/09 10:00:00;;;;;;;10.98;7.05;;;26.40;67.00;;;;;;4981186;28;88013;-32
2023/06/09 10:02:30;;;;;;;10.40;6.97;;;26.40;66.60;;;;;;4981368;28;90054;-32
2023/06/09 10:05:00;;;;;;;9.73;6.15;;;26.60;65.20;;;;;;4981326;28;90240;-33
2023/06/09 10:07:29;;;;;;;8.93;6.50;;;26.60;66.00;;;;;;4980388;28;90662;-34
2023/06/09 10:09:56;;;;;;;8.80;5.97;;;26.70;67.60;;;;;;4980592;28;90095;-36
2023/06/09 10:12:23;;;;;;;7.55;6.40;;;26.90;64.90;;;;;;4981278;28;88762;-32
2023/06/09 10:14:49;;;;;;;7.28;6.32;;;27.00;64.80;;;;;;4980173;28;91191;-33
2023/06/09 10:17:21;;;;;;;10.02;7.57;;;26.80;63.80;;;;;;4981491;28;90052;-35
2023/06/09 10:19:51;;;;;;;7.75;7.05;;;26.90;65.20;;;;;;4978990;28;89482;-31
2023/06/09 10:22:18;;;;;;;6.88;6.18;;;27.00;64.60;;;;;;4980529;28;88162;-36
2023/06/09 10:24:46;;;;;;;7.73;7.00;;;27.00;62.40;;;;;;4980949;28;90653;-32
2023/06/09 10:27:13;;;;;;;9.85;7.60;;;26.90;64.30;;;;;;4980205;28;89481;-36
2023/06/09 10:29:40;;;;;;;8.77;7.03;;;27.10;63.20;;;;;;4980347;28;89495;-32
2023/06/09 10:32:08;;;;;;;8.48;6.20;;;27.00;62.80;;;;;;4980913;28;90377;-34
2023/06/09 10:34:35;;;;;;;11.70;7.20;;;27.10;64.40;;;;;;4979980;28;91059;-36
2023/06/09 10:37:01;;;;;;;7.53;6.63;;;27.20;63.30;;;;;;4981339;28;89673;-32
2023/06/09 10:39:42;;;;;;;7.97;6.65;;;27.30;63.10;;;;;;4979616;28;89612;-33
2023/06/09 10:42:13;;;;;;;7.20;6.50;;;27.50;62.90;;;;;;4981334;28;88086;-33
2023/06/09 10:44:57;;;;;;;9.82;7.00;;;27.50;64.90;;;;;;4980664;28;89240;-35
2023/06/09 10:47:45;;;;;;;10.27;8.02;;;27.50;61.30;;;;;;4980212;28;89430;-32
2023/06/09 10:50:30;;;;;;;10.07;8.07;;;27.40;61.20;;;;;;4979847;28;89883;-35
2023/06/09 10:52:59;;;;;;;8.32;7.45;;;27.40;62.10;;;;;;4980325;28;89281;-32
2023/06/09 10:55:30;;;;;;;6.95;6.18;;;27.50;62.30;;;;;;4979840;28;89882;-36
2023/06/09 10:57:56;;;;;;;7.80;7.10;;;27.60;62.50;;;;;;4984834;28;90484;-35
2023/06/09 11:00:45;;;;;;;13.65;7.38;;;27.50;61.00;;;;;;4980493;28;90370;-32
2023/06/09 11:03:17;;;;;;;7.90;6.78;;;27.60;62.40;;;;;;4980270;28;88077;-34
2023/06/09 11:05:57;;;;;;;7.47;6.82;;;27.70;62.00;;;;;;4981639;28;90093;-36
2023/06/09 11:08:22;;;;;;;7.60;6.78;;;27.60;61.90;;;;;;4983043;28;89828;-32
2023/06/09 11:10:48;;;;;;;7.80;7.05;;;27.60;62.40;;;;;;4980787;28;89586;-32
2023/06/09 11:13:38;;;;;;;11.35;7.82;;;27.70;62.20;;;;;;4979677;28;88446;-34
2023/06/09 11:16:04;;;;;;;9.05;7.18;;;27.60;60.80;;;;;;4980373;28;89860;-32
2023/06/09 11:18:30;;;;;;;8.80;7.53;;;27.70;60.60;;;;;;4979956;28;88224;-36
2023/06/09 11:21:19;;;;;;;9.35;7.72;;;27.70;60.70;;;;;;4980214;28;89778;-33
2023/06/09 11:23:56;;;;;;;8.52;7.82;;;27.90;62.10;;;;;;4979407;28;89017;-36
2023/06/09 11:26:23;;;;;;;13.47;7.60;;;27.80;60.80;;;;;;4978081;28;90949;-31
2023/06/09 11:28:49;;;;;;;8.18;7.28;;;28.00;62.20;;;;;;4981736;28;90023;-33
2023/06/09 11:31:15;;;;;;;7.50;6.80;;;27.90;58.80;;;;;;4977360;28;89536;-34
2023/06/09 11:33:45;;;;;;;12.43;8.38;;;27.70;58.90;;;;;;4979965;28;89388;-32
2023/06/09 11:36:17;;;;;;;10.07;8.23;;;27.70;60.70;;;;;;4977085;28;90009;-33
2023/06/09 11:38:43;;;;;;;8.40;7.55;;;27.70;60.70;;;;;;4970803;28;89524;-36
2023/06/09 11:41:11;;;;;;;9.77;8.27;;;27.70;61.40;;;;;;4977256;28;90397;-35
2023/06/09 11:43:36;;;;;;;8.32;7.22;;;27.80;60.60;;;;;;4977261;28;88160;-35
2023/06/09 11:46:03;;;;;;;11.48;7.78;;;27.70;59.60;;;;;;4977743;28;89168;-31
2023/06/09 11:48:29;;;;;;;8.53;7.57;;;27.70;60.30;;;;;;4975770;28;90619;-36
2023/06/09 11:50:55;;;;;;;7.95;7.22;;;27.90;60.00;;;;;;4971476;28;91086;-33
2023/06/09 11:53:23;;;;;;;7.40;6.70;;;27.90;58.90;;;;;;4977853;28;88890;-34
2023/06/09 11:55:58;;;;;;;7.90;7.20;;;27.80;58.60;;;;;;4977063;28;90005;-33
2023/06/09 11:58:24;;;;;;;10.10;8.18;;;27.90;59.00;;;;;;4976871;28;89726;-36
2023/06/09 12:00:49;;;;;;;7.53;6.78;;;27.80;58.70;;;;;;4977509;28;89444;-34
2023/06/09 12:03:18;;;;;;;10.05;6.53;;;28.00;60.80;;;;;;4977077;28;88978;-32
2023/06/09 12:05:51;;;;;;;9.20;7.43;;;28.10;59.70;;;;;;4976922;28;89023;-32
2023/06/09 12:08:18;;;;;;;8.85;7.63;;;28.20;58.30;;;;;;4977358;28;90966;-32
2023/06/09 12:10:44;;;;;;;8.13;7.35;;;28.00;58.10;;;;;;4977367;28;89150;-34
2023/06/09 12:13:09;;;;;;;8.10;7.40;;;28.20;59.70;;;;;;4976784;28;89072;-35
2023/06/09 12:15:35;;;;;;;12.18;8.50;;;28.20;58.30;;;;;;4975869;28;90787;-34
2023/06/09 12:18:01;;;;;;;14.88;8.70;;;28.10;58.20;;;;;;4977377;28;89577;-34
2023/06/09 12:20:35;;;;;;;9.18;7.95;;;28.00;57.20;;;;;;4976546;28;90090;-33
2023/06/09 12:23:27;;;;;;;8.50;7.68;;;28.10;59.00;;;;;;4978843;28;89295;-37
2023/06/09 12:25:52;;;;;;;8.98;8.23;;;28.20;59.10;;;;;;4980077;28;89872;-35
2023/06/09 12:28:26;;;;;;;9.40;8.60;;;28.20;58.10;;;;;;4977583;28;90047;-35
2023/06/09 12:30:56;;;;;;;8.93;8.25;;;28.10;56.90;;;;;;4976586;28;89072;-32
2023/06/09 12:33:26;;;;;;;8.60;7.72;;;28.30;58.80;;;;;;4976742;28;88460;-32
2023/06/09 12:35:54;;;;;;;9.35;8.55;;;28.30;59.40;;;;;;4975841;28;90049;-35
2023/06/09 12:38:24;;;;;;;9.18;8.10;;;28.20;58.10;;;;;;4976507;28;90827;-34
2023/06/09 12:41:06;;;;;;;8.63;7.40;;;28.30;57.80;;;;;;4973788;28;91065;-31
2023/06/09 12:43:50;;;;;;;7.97;7.32;;;28.20;56.90;;;;;;4977409;28;88454;-32
2023/06/09 12:46:37;;;;;;;11.38;8.13;;;28.20;57.60;;;;;;4968429;28;89243;-37